sensor_id;sensor_type;location;lat;lon;timestamp;pressure;altitude;pressure_sealevel;temperature;humidity
21658;BME280;10990;48.174;9.782;2022-11-12T00:01:18;92678.97;;;6.50;100.00
21658;BME280;10990;48.174;9.782;2022-11-12T00:04:03;92695.50;;;6.37;100.00
21658;BME280;10990;48.174;9.782;2022-11-12T00:06:49;92685.38;;;6.34;100.00
21658;BME280;10990;48.174;9.782;2022-11-12T00:09:35;92665.22;;;6.41;100.00
21658;BME280;10990;48.174;9.782;2022-11-12T00:12:20;92634.75;;;6.54;100.00
21658;BME280;10990;48.174;9.782;2022-11-12T00:15:06;92584.25;;;6.78;100.00
21658;BME280;10990;48.174;9.782;2022-11-12T00:17:53;92556.59;;;6.89;100.00
21658;BME280;10990;48.174;9.782;2022-11-12T00:20:38;92543.03;;;6.92;100.00
21658;BME280;10990;48.174;9.782;2022-11-12T00:23:24;92583.47;;;6.71;100.00
21658;BME280;10990;48.174;9.782;2022-11-12T00:26:09;92563.25;;;6.78;100.00
21658;BME280;10990;48.174;9.782;2022-11-12T00:28:55;92579.63;;;6.73;100.00
21658;BME280;10990;48.174;9.782;2022-11-12T00:31:40;92613.56;;;6.62;100.00
21658;BME280;10990;48.174;9.782;2022-11-12T00:34:27;92615.38;;;6.68;100.00
21658;BME280;10990;48.174;9.782;2022-11-12T00:37:12;92600.03;;;6.78;100.00
21658;BME280;10990;48.174;9.782;2022-11-12T00:39:58;92647.06;;;6.53;100.00
21658;BME280;10990;48.174;9.782;2022-11-12T00:42:43;92663.03;;;6.51;100.00
21658;BME280;10990;48.174;9.782;2022-11-12T00:45:28;92677.13;;;6.44;100.00
21658;BME280;10990;48.174;9.782;2022-11-12T00:48:14;92669.06;;;6.52;100.00
21658;BME280;10990;48.174;9.782;2022-11-12T00:51:02;92682.16;;;6.39;100.00
21658;BME280;10990;48.174;9.782;2022-11-12T00:53:48;92700.09;;;6.28;100.00
21658;BME280;10990;48.174;9.782;2022-11-12T00:56:34;92704.50;;;6.21;100.00
21658;BME280;10990;48.174;9.782;2022-11-12T00:59:19;92670.63;;;6.33;100.00
21658;BME280;10990;48.174;9.782;2022-11-12T01:02:04;92633.13;;;6.39;100.00
21658;BME280;10990;48.174;9.782;2022-11-12T01:04:50;92598.63;;;6.62;100.00
21658;BME280;10990;48.174;9.782;2022-11-12T01:07:36;92595.19;;;6.62;100.00
21658;BME280;10990;48.174;9.782;2022-11-12T01:10:21;92599.22;;;6.51;100.00
21658;BME280;10990;48.174;9.782;2022-11-12T01:13:07;92572.97;;;6.71;100.00
21658;BME280;10990;48.174;9.782;2022-11-12T01:15:52;92556.81;;;6.87;100.00
21658;BME280;10990;48.174;9.782;2022-11-12T01:18:38;92561.47;;;6.79;100.00
21658;BME280;10990;48.174;9.782;2022-11-12T01:21:26;92588.09;;;6.69;100.00
21658;BME280;10990;48.174;9.782;2022-11-12T01:24:13;92590.94;;;6.67;100.00
21658;BME280;10990;48.174;9.782;2022-11-12T01:26:58;92573.75;;;6.78;100.00
21658;BME280;10990;48.174;9.782;2022-11-12T01:29:44;92569.72;;;6.82;100.00
21658;BME280;10990;48.174;9.782;2022-11-12T01:32:33;92579.00;;;6.78;100.00
21658;BME280;10990;48.174;9.782;2022-11-12T01:35:18;92584.47;;;6.77;100.00
21658;BME280;10990;48.174;9.782;2022-11-12T01:38:03;92602.03;;;6.69;100.00
21658;BME280;10990;48.174;9.782;2022-11-12T01:40:50;92651.50;;;6.39;100.00
21658;BME280;10990;48.174;9.782;2022-11-12T01:43:35;92598.22;;;6.72;100.00
21658;BME280;10990;48.174;9.782;2022-11-12T01:46:25;92600.25;;;6.77;100.00
21658;BME280;10990;48.174;9.782;2022-11-12T01:49:18;92585.09;;;6.85;100.00
21658;BME280;10990;48.174;9.782;2022-11-12T01:52:10;92609.53;;;6.79;100.00
21658;BME280;10990;48.174;9.782;2022-11-12T01:55:00;92634.34;;;6.70;100.00
21658;BME280;10990;48.174;9.782;2022-11-12T01:57:52;92664.63;;;6.53;100.00
21658;BME280;10990;48.174;9.782;2022-11-12T02:00:39;92697.28;;;6.30;100.00
21658;BME280;10990;48.174;9.782;2022-11-12T02:03:25;92675.28;;;6.38;100.00
21658;BME280;10990;48.174;9.782;2022-11-12T02:06:12;92646.25;;;6.46;100.00
21658;BME280;10990;48.174;9.782;2022-11-12T02:08:58;92623.06;;;6.56;100.00
21658;BME280;10990;48.174;9.782;2022-11-12T02:11:44;92615.97;;;6.63;100.00
21658;BME280;10990;48.174;9.782;2022-11-12T02:14:31;92609.13;;;6.69;100.00
21658;BME280;10990;48.174;9.782;2022-11-12T02:17:16;92605.28;;;6.71;100.00
21658;BME280;10990;48.174;9.782;2022-11-12T02:20:01;92614.97;;;6.64;100.00
21658;BME280;10990;48.174;9.782;2022-11-12T02:22:48;92610.72;;;6.63;100.00
21658;BME280;10990;48.174;9.782;2022-11-12T02:25:34;92621.44;;;6.62;100.00
21658;BME280;10990;48.174;9.782;2022-11-12T02:28:19;92620.22;;;6.58;100.00
21658;BME280;10990;48.174;9.782;2022-11-12T02:31:05;92648.06;;;6.52;100.00
21658;BME280;10990;48.174;9.782;2022-11-12T02:33:51;92712.59;;;6.20;100.00
21658;BME280;10990;48.174;9.782;2022-11-12T02:36:36;92674.09;;;6.40;100.00
21658;BME280;10990;48.174;9.782;2022-11-12T02:39:22;92677.13;;;6.44;100.00
21658;BME280;10990;48.174;9.782;2022-11-12T02:42:08;92753.69;;;6.06;100.00
21658;BME280;10990;48.174;9.782;2022-11-12T02:44:53;92741.16;;;6.08;100.00
21658;BME280;10990;48.174;9.782;2022-11-12T02:47:39;92762.34;;;6.00;100.00
21658;BME280;10990;48.174;9.782;2022-11-12T02:50:24;92741.56;;;6.05;100.00
21658;BME280;10990;48.174;9.782;2022-11-12T02:53:10;92716.19;;;6.19;100.00
21658;BME280;10990;48.174;9.782;2022-11-12T02:55:57;92741.94;;;6.02;100.00
21658;BME280;10990;48.174;9.782;2022-11-12T02:58:42;92751.47;;;6.03;100.00
21658;BME280;10990;48.174;9.782;2022-11-12T03:01:27;92777.53;;;5.83;100.00
21658;BME280;10990;48.174;9.782;2022-11-12T03:04:13;92750.41;;;5.97;100.00
21658;BME280;10990;48.174;9.782;2022-11-12T03:06:58;92735.09;;;6.01;100.00
21658;BME280;10990;48.174;9.782;2022-11-12T03:09:43;92698.63;;;6.19;100.00
21658;BME280;10990;48.174;9.782;2022-11-12T03:12:30;92706.31;;;6.14;100.00
21658;BME280;10990;48.174;9.782;2022-11-12T03:15:16;92727.00;;;6.02;100.00
21658;BME280;10990;48.174;9.782;2022-11-12T03:18:02;92699.66;;;6.18;100.00
21658;BME280;10990;48.174;9.782;2022-11-12T03:20:50;92718.59;;;6.14;100.00
21658;BME280;10990;48.174;9.782;2022-11-12T03:23:35;92705.94;;;6.24;100.00
21658;BME280;10990;48.174;9.782;2022-11-12T03:26:21;92728.72;;;6.17;100.00
21658;BME280;10990;48.174;9.782;2022-11-12T03:29:07;92761.94;;;6.03;100.00
21658;BME280;10990;48.174;9.782;2022-11-12T03:31:52;92745.06;;;6.19;100.00
21658;BME280;10990;48.174;9.782;2022-11-12T03:34:38;92751.94;;;6.20;100.00
21658;BME280;10990;48.174;9.782;2022-11-12T03:37:23;92744.09;;;6.26;100.00
21658;BME280;10990;48.174;9.782;2022-11-12T03:40:09;92730.00;;;6.34;100.00
21658;BME280;10990;48.174;9.782;2022-11-12T03:42:55;92760.66;;;6.27;100.00
21658;BME280;10990;48.174;9.782;2022-11-12T03:45:42;92799.91;;;6.07;100.00
21658;BME280;10990;48.174;9.782;2022-11-12T03:48:27;92784.88;;;6.22;100.00
21658;BME280;10990;48.174;9.782;2022-11-12T03:51:12;92777.41;;;6.26;100.00
21658;BME280;10990;48.174;9.782;2022-11-12T03:53:59;92782.06;;;6.31;100.00
21658;BME280;10990;48.174;9.782;2022-11-12T03:56:44;92823.75;;;6.12;100.00
21658;BME280;10990;48.174;9.782;2022-11-12T03:59:29;92815.34;;;6.23;100.00
21658;BME280;10990;48.174;9.782;2022-11-12T04:02:16;92815.97;;;6.25;100.00
21658;BME280;10990;48.174;9.782;2022-11-12T04:05:02;92826.06;;;6.28;100.00
21658;BME280;10990;48.174;9.782;2022-11-12T04:08:08;92805.91;;;6.36;100.00
21658;BME280;10990;48.174;9.782;2022-11-12T04:11:14;92818.63;;;6.32;100.00
21658;BME280;10990;48.174;9.782;2022-11-12T04:13:59;92850.47;;;6.22;100.00
21658;BME280;10990;48.174;9.782;2022-11-12T04:16:44;92858.75;;;6.26;100.00
21658;BME280;10990;48.174;9.782;2022-11-12T04:19:49;92853.94;;;6.29;100.00
21658;BME280;10990;48.174;9.782;2022-11-12T04:22:52;92851.34;;;6.36;100.00
21658;BME280;10990;48.174;9.782;2022-11-12T04:25:38;92886.63;;;6.27;100.00
21658;BME280;10990;48.174;9.782;2022-11-12T04:28:42;92916.22;;;6.14;100.00
21658;BME280;10990;48.174;9.782;2022-11-12T04:31:48;92901.97;;;6.30;100.00
21658;BME280;10990;48.174;9.782;2022-11-12T04:34:32;92931.22;;;6.27;100.00
21658;BME280;10990;48.174;9.782;2022-11-12T04:37:20;92936.91;;;6.31;100.00
21658;BME280;10990;48.174;9.782;2022-11-12T04:40:07;92947.78;;;6.27;100.00
21658;BME280;10990;48.174;9.782;2022-11-12T04:43:08;92966.75;;;6.23;100.00
21658;BME280;10990;48.174;9.782;2022-11-12T04:46:12;92961.34;;;6.31;100.00
21658;BME280;10990;48.174;9.782;2022-11-12T04:48:57;92988.34;;;6.25;100.00
21658;BME280;10990;48.174;9.782;2022-11-12T04:51:42;92984.97;;;6.31;100.00
21658;BME280;10990;48.174;9.782;2022-11-12T04:54:47;93015.91;;;6.14;100.00
21658;BME280;10990;48.174;9.782;2022-11-12T04:57:32;93032.38;;;6.08;100.00
21658;BME280;10990;48.174;9.782;2022-11-12T05:00:18;93047.78;;;6.11;100.00
21658;BME280;10990;48.174;9.782;2022-11-12T05:03:03;93039.41;;;6.22;100.00
21658;BME280;10990;48.174;9.782;2022-11-12T05:05:49;93062.94;;;6.16;100.00
21658;BME280;10990;48.174;9.782;2022-11-12T05:08:34;93066.84;;;6.20;100.00
21658;BME280;10990;48.174;9.782;2022-11-12T05:11:21;93100.16;;;6.04;100.00
21658;BME280;10990;48.174;9.782;2022-11-12T05:14:06;93102.34;;;6.01;100.00
21658;BME280;10990;48.174;9.782;2022-11-12T05:16:52;93088.81;;;6.19;100.00
21658;BME280;10990;48.174;9.782;2022-11-12T05:19:37;93078.81;;;6.29;100.00
21658;BME280;10990;48.174;9.782;2022-11-12T05:22:23;93093.56;;;6.30;100.00
21658;BME280;10990;48.174;9.782;2022-11-12T05:25:08;93111.50;;;6.26;100.00
21658;BME280;10990;48.174;9.782;2022-11-12T05:27:55;93111.13;;;6.29;100.00
21658;BME280;10990;48.174;9.782;2022-11-12T05:30:40;93133.31;;;6.27;100.00
21658;BME280;10990;48.174;9.782;2022-11-12T05:33:25;93140.22;;;6.28;100.00
21658;BME280;10990;48.174;9.782;2022-11-12T05:36:14;93156.59;;;6.15;100.00
21658;BME280;10990;48.174;9.782;2022-11-12T05:38:59;93152.31;;;6.29;100.00
21658;BME280;10990;48.174;9.782;2022-11-12T05:41:45;93160.84;;;6.31;100.00
21658;BME280;10990;48.174;9.782;2022-11-12T05:44:32;93165.63;;;6.27;100.00
21658;BME280;10990;48.174;9.782;2022-11-12T05:47:18;93160.25;;;6.36;100.00
21658;BME280;10990;48.174;9.782;2022-11-12T05:50:04;93178.63;;;6.36;100.00
21658;BME280;10990;48.174;9.782;2022-11-12T05:52:49;93192.56;;;6.36;100.00
21658;BME280;10990;48.174;9.782;2022-11-12T05:55:34;93230.88;;;6.16;100.00
21658;BME280;10990;48.174;9.782;2022-11-12T05:58:19;93221.28;;;6.23;100.00
21658;BME280;10990;48.174;9.782;2022-11-12T06:01:06;93241.94;;;6.11;100.00
21658;BME280;10990;48.174;9.782;2022-11-12T06:03:52;93250.25;;;6.15;100.00
21658;BME280;10990;48.174;9.782;2022-11-12T06:06:37;93229.53;;;6.20;100.00
21658;BME280;10990;48.174;9.782;2022-11-12T06:09:23;93254.59;;;6.07;100.00
21658;BME280;10990;48.174;9.782;2022-11-12T06:12:08;93287.53;;;5.95;100.00
21658;BME280;10990;48.174;9.782;2022-11-12T06:14:54;93273.31;;;6.04;100.00
21658;BME280;10990;48.174;9.782;2022-11-12T06:17:42;93254.41;;;6.24;100.00
21658;BME280;10990;48.174;9.782;2022-11-12T06:20:27;93269.72;;;6.20;100.00
21658;BME280;10990;48.174;9.782;2022-11-12T06:23:12;93247.81;;;6.28;100.00
21658;BME280;10990;48.174;9.782;2022-11-12T06:25:57;93254.59;;;6.22;100.00
21658;BME280;10990;48.174;9.782;2022-11-12T06:28:43;93270.97;;;6.10;100.00
21658;BME280;10990;48.174;9.782;2022-11-12T06:31:28;93267.53;;;6.09;100.00
21658;BME280;10990;48.174;9.782;2022-11-12T06:34:15;93264.56;;;6.12;100.00
21658;BME280;10990;48.174;9.782;2022-11-12T06:37:00;93274.78;;;6.07;100.00
21658;BME280;10990;48.174;9.782;2022-11-12T06:39:45;93270.63;;;6.13;100.00
21658;BME280;10990;48.174;9.782;2022-11-12T06:42:31;93271.41;;;6.13;100.00
21658;BME280;10990;48.174;9.782;2022-11-12T06:45:16;93258.47;;;6.26;100.00
21658;BME280;10990;48.174;9.782;2022-11-12T06:48:02;93299.94;;;6.01;100.00
21658;BME280;10990;48.174;9.782;2022-11-12T06:50:48;93314.09;;;5.92;100.00
21658;BME280;10990;48.174;9.782;2022-11-12T06:53:33;93294.41;;;5.96;100.00
21658;BME280;10990;48.174;9.782;2022-11-12T06:56:19;93303.28;;;5.95;100.00
21658;BME280;10990;48.174;9.782;2022-11-12T06:59:04;93277.16;;;6.17;100.00
21658;BME280;10990;48.174;9.782;2022-11-12T07:01:50;93271.91;;;6.17;100.00
21658;BME280;10990;48.174;9.782;2022-11-12T07:04:35;93283.81;;;6.19;100.00
21658;BME280;10990;48.174;9.782;2022-11-12T07:07:22;93308.72;;;6.09;100.00
21658;BME280;10990;48.174;9.782;2022-11-12T07:10:08;93297.31;;;6.16;100.00
21658;BME280;10990;48.174;9.782;2022-11-12T07:12:53;93301.84;;;6.22;100.00
21658;BME280;10990;48.174;9.782;2022-11-12T07:15:39;93311.50;;;6.22;100.00
21658;BME280;10990;48.174;9.782;2022-11-12T07:18:25;93339.47;;;6.15;100.00
21658;BME280;10990;48.174;9.782;2022-11-12T07:21:13;93352.41;;;6.16;100.00
21658;BME280;10990;48.174;9.782;2022-11-12T07:24:00;93354.34;;;6.22;100.00
21658;BME280;10990;48.174;9.782;2022-11-12T07:26:45;93381.09;;;6.18;100.00
21658;BME280;10990;48.174;9.782;2022-11-12T07:29:31;93402.69;;;6.05;100.00
21658;BME280;10990;48.174;9.782;2022-11-12T07:32:16;93408.44;;;6.09;100.00
21658;BME280;10990;48.174;9.782;2022-11-12T07:35:02;93396.66;;;6.19;100.00
21658;BME280;10990;48.174;9.782;2022-11-12T07:37:47;93415.59;;;6.15;100.00
21658;BME280;10990;48.174;9.782;2022-11-12T07:40:34;93463.31;;;5.87;100.00
21658;BME280;10990;48.174;9.782;2022-11-12T07:43:19;93479.31;;;5.77;100.00
21658;BME280;10990;48.174;9.782;2022-11-12T07:46:06;93462.88;;;5.83;100.00
21658;BME280;10990;48.174;9.782;2022-11-12T07:48:52;93452.31;;;5.92;100.00
21658;BME280;10990;48.174;9.782;2022-11-12T07:51:38;93458.25;;;5.85;100.00
21658;BME280;10990;48.174;9.782;2022-11-12T07:54:23;93451.56;;;5.83;100.00
21658;BME280;10990;48.174;9.782;2022-11-12T07:57:10;93448.41;;;5.88;100.00
21658;BME280;10990;48.174;9.782;2022-11-12T07:59:55;93453.47;;;5.89;100.00
21658;BME280;10990;48.174;9.782;2022-11-12T08:02:41;93465.84;;;5.80;100.00
21658;BME280;10990;48.174;9.782;2022-11-12T08:05:26;93443.56;;;5.99;100.00
21658;BME280;10990;48.174;9.782;2022-11-12T08:08:11;93424.91;;;6.17;100.00
21658;BME280;10990;48.174;9.782;2022-11-12T08:10:57;93486.63;;;5.82;100.00
21658;BME280;10990;48.174;9.782;2022-11-12T08:13:44;93466.38;;;5.99;100.00
21658;BME280;10990;48.174;9.782;2022-11-12T08:16:29;93475.72;;;6.01;100.00
21658;BME280;10990;48.174;9.782;2022-11-12T08:19:14;93455.84;;;6.22;100.00
21658;BME280;10990;48.174;9.782;2022-11-12T08:22:00;93470.06;;;6.27;100.00
21658;BME280;10990;48.174;9.782;2022-11-12T08:24:45;93482.69;;;6.32;100.00
21658;BME280;10990;48.174;9.782;2022-11-12T08:27:30;93496.16;;;6.29;100.00
21658;BME280;10990;48.174;9.782;2022-11-12T08:30:17;93528.53;;;6.21;100.00
21658;BME280;10990;48.174;9.782;2022-11-12T08:33:04;93545.22;;;6.28;100.00
21658;BME280;10990;48.174;9.782;2022-11-12T08:35:50;93549.31;;;6.31;100.00
21658;BME280;10990;48.174;9.782;2022-11-12T08:38:35;93573.91;;;6.30;100.00
21658;BME280;10990;48.174;9.782;2022-11-12T08:41:22;93647.59;;;5.89;100.00
21658;BME280;10990;48.174;9.782;2022-11-12T08:44:07;93656.09;;;5.91;100.00
21658;BME280;10990;48.174;9.782;2022-11-12T08:46:54;93638.97;;;6.20;100.00
21658;BME280;10990;48.174;9.782;2022-11-12T08:49:39;93634.81;;;6.25;100.00
21658;BME280;10990;48.174;9.782;2022-11-12T08:52:25;93626.06;;;6.33;100.00
21658;BME280;10990;48.174;9.782;2022-11-12T08:55:10;93633.88;;;6.41;100.00
21658;BME280;10990;48.174;9.782;2022-11-12T08:57:55;93649.13;;;6.46;100.00
21658;BME280;10990;48.174;9.782;2022-11-12T09:00:45;93628.78;;;6.71;100.00
21658;BME280;10990;48.174;9.782;2022-11-12T09:03:32;93669.53;;;6.59;100.00
21658;BME280;10990;48.174;9.782;2022-11-12T09:06:17;93680.69;;;6.61;100.00
21658;BME280;10990;48.174;9.782;2022-11-12T09:09:02;93698.28;;;6.60;100.00
21658;BME280;10990;48.174;9.782;2022-11-12T09:11:47;93705.16;;;6.61;100.00
21658;BME280;10990;48.174;9.782;2022-11-12T09:14:33;93690.03;;;6.86;100.00
21658;BME280;10990;48.174;9.782;2022-11-12T09:17:18;93708.78;;;6.83;100.00
21658;BME280;10990;48.174;9.782;2022-11-12T09:20:06;93720.75;;;6.86;100.00
21658;BME280;10990;48.174;9.782;2022-11-12T09:22:51;93728.13;;;6.90;100.00
21658;BME280;10990;48.174;9.782;2022-11-12T09:25:37;93735.81;;;6.92;100.00
21658;BME280;10990;48.174;9.782;2022-11-12T09:28:23;93760.03;;;6.87;100.00
21658;BME280;10990;48.174;9.782;2022-11-12T09:31:09;93768.41;;;6.83;100.00
21658;BME280;10990;48.174;9.782;2022-11-12T09:33:54;93771.75;;;7.00;100.00
21658;BME280;10990;48.174;9.782;2022-11-12T09:36:41;93775.97;;;7.09;100.00
21658;BME280;10990;48.174;9.782;2022-11-12T09:39:27;93814.16;;;6.96;100.00
21658;BME280;10990;48.174;9.782;2022-11-12T09:42:15;93817.56;;;7.05;100.00
21658;BME280;10990;48.174;9.782;2022-11-12T09:45:06;93846.00;;;7.02;100.00
21658;BME280;10990;48.174;9.782;2022-11-12T09:47:57;93878.72;;;6.91;100.00
21658;BME280;10990;48.174;9.782;2022-11-12T09:50:52;93870.94;;;7.06;100.00
21658;BME280;10990;48.174;9.782;2022-11-12T09:53:43;93920.31;;;6.87;100.00
21658;BME280;10990;48.174;9.782;2022-11-12T09:56:31;93950.56;;;6.67;100.00
21658;BME280;10990;48.174;9.782;2022-11-12T09:59:16;93935.53;;;6.92;100.00
21658;BME280;10990;48.174;9.782;2022-11-12T10:02:14;93926.59;;;7.09;100.00
21658;BME280;10990;48.174;9.782;2022-11-12T10:05:16;93965.47;;;6.83;100.00
21658;BME280;10990;48.174;9.782;2022-11-12T10:08:15;94008.69;;;6.56;100.00
21658;BME280;10990;48.174;9.782;2022-11-12T10:11:16;94020.19;;;6.55;100.00
21658;BME280;10990;48.174;9.782;2022-11-12T10:14:14;93971.84;;;6.88;100.00
21658;BME280;10990;48.174;9.782;2022-11-12T10:17:07;93992.09;;;6.80;100.00
21658;BME280;10990;48.174;9.782;2022-11-12T10:20:04;93982.50;;;6.95;100.00
21658;BME280;10990;48.174;9.782;2022-11-12T10:23:05;93991.41;;;6.86;100.00
21658;BME280;10990;48.174;9.782;2022-11-12T10:25:56;94007.16;;;6.94;100.00
21658;BME280;10990;48.174;9.782;2022-11-12T10:28:46;93962.66;;;7.32;100.00
21658;BME280;10990;48.174;9.782;2022-11-12T10:31:32;93987.19;;;7.24;100.00
21658;BME280;10990;48.174;9.782;2022-11-12T10:34:19;94008.91;;;7.18;100.00
21658;BME280;10990;48.174;9.782;2022-11-12T10:37:09;94032.28;;;7.05;100.00
21658;BME280;10990;48.174;9.782;2022-11-12T10:39:55;94041.78;;;7.06;100.00
21658;BME280;10990;48.174;9.782;2022-11-12T10:42:56;94048.69;;;7.07;100.00
21658;BME280;10990;48.174;9.782;2022-11-12T10:45:44;94043.72;;;7.12;100.00
21658;BME280;10990;48.174;9.782;2022-11-12T10:48:31;94016.91;;;7.33;100.00
21658;BME280;10990;48.174;9.782;2022-11-12T10:51:24;94019.00;;;7.37;100.00
21658;BME280;10990;48.174;9.782;2022-11-12T10:54:20;94042.72;;;7.29;100.00
21658;BME280;10990;48.174;9.782;2022-11-12T10:57:18;94068.06;;;7.14;100.00
21658;BME280;10990;48.174;9.782;2022-11-12T11:00:22;94059.00;;;7.16;100.00
21658;BME280;10990;48.174;9.782;2022-11-12T11:03:19;94058.34;;;7.23;100.00
21658;BME280;10990;48.174;9.782;2022-11-12T11:06:09;94053.38;;;7.36;100.00
21658;BME280;10990;48.174;9.782;2022-11-12T11:09:14;94061.25;;;7.36;100.00
21658;BME280;10990;48.174;9.782;2022-11-12T11:12:00;94064.31;;;7.56;100.00
21658;BME280;10990;48.174;9.782;2022-11-12T11:14:46;94058.19;;;7.72;100.00
21658;BME280;10990;48.174;9.782;2022-11-12T11:17:31;94068.81;;;7.78;100.00
21658;BME280;10990;48.174;9.782;2022-11-12T11:20:22;94126.66;;;7.47;100.00
21658;BME280;10990;48.174;9.782;2022-11-12T11:23:14;94099.56;;;7.86;100.00
21658;BME280;10990;48.174;9.782;2022-11-12T11:26:12;94089.38;;;8.14;100.00
21658;BME280;10990;48.174;9.782;2022-11-12T11:29:15;94117.00;;;8.18;100.00
21658;BME280;10990;48.174;9.782;2022-11-12T11:32:10;94117.72;;;8.35;100.00
21658;BME280;10990;48.174;9.782;2022-11-12T11:35:10;94154.78;;;8.34;100.00
21658;BME280;10990;48.174;9.782;2022-11-12T11:38:13;94198.94;;;8.23;100.00
21658;BME280;10990;48.174;9.782;2022-11-12T11:41:09;94237.00;;;8.13;100.00
21658;BME280;10990;48.174;9.782;2022-11-12T11:44:06;94248.53;;;8.12;100.00
21658;BME280;10990;48.174;9.782;2022-11-12T11:47:01;94266.47;;;8.08;100.00
21658;BME280;10990;48.174;9.782;2022-11-12T11:50:05;94261.88;;;8.02;100.00
21658;BME280;10990;48.174;9.782;2022-11-12T11:53:11;94259.25;;;8.02;100.00
21658;BME280;10990;48.174;9.782;2022-11-12T11:56:01;94243.22;;;8.28;100.00
21658;BME280;10990;48.174;9.782;2022-11-12T11:58:59;94265.78;;;8.22;100.00
21658;BME280;10990;48.174;9.782;2022-11-12T12:01:57;94286.88;;;8.14;100.00
21658;BME280;10990;48.174;9.782;2022-11-12T12:04:49;94275.47;;;8.30;100.00
21658;BME280;10990;48.174;9.782;2022-11-12T12:07:41;94288.47;;;8.40;100.00
21658;BME280;10990;48.174;9.782;2022-11-12T12:10:41;94278.16;;;8.61;100.00
21658;BME280;10990;48.174;9.782;2022-11-12T12:13:35;94286.66;;;8.80;100.00
21658;BME280;10990;48.174;9.782;2022-11-12T12:16:32;94336.66;;;8.65;100.00
21658;BME280;10990;48.174;9.782;2022-11-12T12:19:36;94353.63;;;8.54;100.00
21658;BME280;10990;48.174;9.782;2022-11-12T12:22:29;94410.31;;;8.01;100.00
21658;BME280;10990;48.174;9.782;2022-11-12T12:25:21;94378.19;;;8.30;100.00
21658;BME280;10990;48.174;9.782;2022-11-12T12:28:15;94353.63;;;8.62;100.00
21658;BME280;10990;48.174;9.782;2022-11-12T12:31:06;94374.03;;;8.68;100.00
21658;BME280;10990;48.174;9.782;2022-11-12T12:33:55;94383.56;;;8.61;100.00
21658;BME280;10990;48.174;9.782;2022-11-12T12:36:44;94411.28;;;8.49;100.00
21658;BME280;10990;48.174;9.782;2022-11-12T12:39:38;94388.38;;;8.58;100.00
21658;BME280;10990;48.174;9.782;2022-11-12T12:42:29;94406.22;;;8.39;100.00
21658;BME280;10990;48.174;9.782;2022-11-12T12:45:37;94409.78;;;8.38;100.00
21658;BME280;10990;48.174;9.782;2022-11-12T12:48:27;94399.75;;;8.42;100.00
21658;BME280;10990;48.174;9.782;2022-11-12T12:51:13;94394.81;;;8.47;100.00
21658;BME280;10990;48.174;9.782;2022-11-12T12:53:59;94400.59;;;8.50;100.00
21658;BME280;10990;48.174;9.782;2022-11-12T12:56:46;94394.13;;;8.53;100.00
21658;BME280;10990;48.174;9.782;2022-11-12T12:59:31;94407.16;;;8.55;100.00
21658;BME280;10990;48.174;9.782;2022-11-12T13:02:21;94425.63;;;8.46;100.00
21658;BME280;10990;48.174;9.782;2022-11-12T13:05:22;94427.75;;;8.26;100.00
21658;BME280;10990;48.174;9.782;2022-11-12T13:08:10;94408.66;;;8.49;100.00
21658;BME280;10990;48.174;9.782;2022-11-12T13:10:57;94421.03;;;8.40;100.00
21658;BME280;10990;48.174;9.782;2022-11-12T13:13:42;94450.97;;;8.23;100.00
21658;BME280;10990;48.174;9.782;2022-11-12T13:16:55;94470.03;;;7.92;100.00
21658;BME280;10990;48.174;9.782;2022-11-12T13:19:45;94460.63;;;7.81;100.00
21658;BME280;10990;48.174;9.782;2022-11-12T13:22:48;94433.81;;;8.02;100.00
21658;BME280;10990;48.174;9.782;2022-11-12T13:25:35;94434.00;;;8.09;100.00
21658;BME280;10990;48.174;9.782;2022-11-12T13:28:20;94411.16;;;8.42;100.00
21658;BME280;10990;48.174;9.782;2022-11-12T13:31:23;94421.16;;;8.39;100.00
21658;BME280;10990;48.174;9.782;2022-11-12T13:34:18;94436.81;;;8.32;100.00
21658;BME280;10990;48.174;9.782;2022-11-12T13:37:11;94454.41;;;8.15;100.00
21658;BME280;10990;48.174;9.782;2022-11-12T13:40:04;94449.31;;;8.22;100.00
21658;BME280;10990;48.174;9.782;2022-11-12T13:42:55;94449.81;;;8.25;100.00
21658;BME280;10990;48.174;9.782;2022-11-12T13:45:45;94453.75;;;8.21;100.00
21658;BME280;10990;48.174;9.782;2022-11-12T13:48:35;94461.81;;;8.12;100.00
21658;BME280;10990;48.174;9.782;2022-11-12T13:51:36;94452.28;;;8.19;100.00
21658;BME280;10990;48.174;9.782;2022-11-12T13:54:26;94475.97;;;7.94;100.00
21658;BME280;10990;48.174;9.782;2022-11-12T13:57:13;94456.38;;;8.05;100.00
21658;BME280;10990;48.174;9.782;2022-11-12T14:00:18;94436.81;;;8.24;100.00
21658;BME280;10990;48.174;9.782;2022-11-12T14:03:06;94444.22;;;8.04;100.00
21658;BME280;10990;48.174;9.782;2022-11-12T14:05:52;94434.69;;;8.11;100.00
21658;BME280;10990;48.174;9.782;2022-11-12T14:12:09;94453.91;;;7.87;100.00
21658;BME280;10990;48.174;9.782;2022-11-12T14:15:29;94428.25;;;7.97;100.00
21658;BME280;10990;48.174;9.782;2022-11-12T14:18:25;94419.03;;;7.93;100.00
21658;BME280;10990;48.174;9.782;2022-11-12T14:21:15;94433.97;;;7.76;100.00
21658;BME280;10990;48.174;9.782;2022-11-12T14:24:02;94445.47;;;7.59;100.00
21658;BME280;10990;48.174;9.782;2022-11-12T14:26:47;94456.44;;;7.38;100.00
21658;BME280;10990;48.174;9.782;2022-11-12T14:29:34;94414.38;;;7.62;100.00
21658;BME280;10990;48.174;9.782;2022-11-12T14:32:19;94403.53;;;7.66;100.00
21658;BME280;10990;48.174;9.782;2022-11-12T14:35:19;94395.00;;;7.72;100.00
21658;BME280;10990;48.174;9.782;2022-11-12T14:38:13;94374.94;;;7.79;100.00
21658;BME280;10990;48.174;9.782;2022-11-12T14:41:05;94378.38;;;7.79;100.00
21658;BME280;10990;48.174;9.782;2022-11-12T14:43:52;94392.84;;;7.59;100.00
21658;BME280;10990;48.174;9.782;2022-11-12T14:46:46;94371.47;;;7.70;100.00
21658;BME280;10990;48.174;9.782;2022-11-12T14:49:35;94347.94;;;7.85;100.00
21658;BME280;10990;48.174;9.782;2022-11-12T14:52:24;94344.16;;;7.88;100.00
21658;BME280;10990;48.174;9.782;2022-11-12T14:55:15;94350.09;;;7.81;100.00
21658;BME280;10990;48.174;9.782;2022-11-12T14:58:02;94397.22;;;7.34;100.00